createdAt,value
2024-02-13T00:01:31.417Z,5.00
2024-02-13T00:04:00.903Z,5.00
2024-02-13T00:06:28.904Z,5.00
2024-02-13T00:08:57.073Z,5.00
2024-02-13T00:11:25.210Z,5.00
2024-02-13T00:13:53.314Z,5.00
2024-02-13T00:16:22.142Z,5.00
2024-02-13T00:18:50.415Z,5.00
2024-02-13T00:21:20.864Z,5.00
2024-02-13T00:23:49.861Z,5.00
2024-02-13T00:26:17.985Z,5.00
2024-02-13T00:28:47.523Z,5.00
2024-02-13T00:31:15.823Z,5.00
2024-02-13T00:33:44.822Z,5.00
2024-02-13T00:36:16.744Z,5.10
2024-02-13T00:38:47.223Z,5.00
2024-02-13T00:41:15.930Z,5.00
2024-02-13T00:43:43.935Z,5.00
2024-02-13T00:46:14.050Z,5.00
2024-02-13T00:48:43.660Z,5.00
2024-02-13T00:51:11.883Z,5.00
2024-02-13T00:53:48.310Z,5.00
2024-02-13T00:56:17.762Z,5.10
2024-02-13T00:58:48.759Z,5.10
2024-02-13T01:01:16.903Z,5.00
2024-02-13T01:03:45.780Z,5.10
2024-02-13T01:06:13.781Z,5.10
2024-02-13T01:08:42.483Z,5.00
2024-02-13T01:11:10.889Z,5.00
2024-02-13T01:13:40.230Z,5.10
2024-02-13T01:16:08.507Z,5.10
2024-02-13T01:18:36.707Z,5.00
2024-02-13T01:21:06.545Z,5.00
2024-02-13T01:23:34.735Z,5.00
2024-02-13T01:26:04.329Z,5.00
2024-02-13T01:28:35.022Z,4.90
2024-02-13T01:31:04.671Z,4.90
2024-02-13T01:33:34.562Z,4.90
2024-02-13T01:36:05.349Z,4.90
2024-02-13T01:38:34.174Z,5.00
2024-02-13T01:41:02.282Z,5.00
2024-02-13T01:43:32.355Z,5.00
2024-02-13T01:46:03.616Z,5.00
2024-02-13T01:48:33.145Z,5.00
2024-02-13T01:51:02.478Z,5.00
2024-02-13T01:53:31.129Z,5.00
2024-02-13T01:56:02.693Z,5.00
2024-02-13T01:58:32.096Z,5.00
2024-02-13T02:01:02.417Z,5.00
2024-02-13T02:03:34.799Z,5.10
2024-02-13T02:06:04.351Z,5.10
2024-02-13T02:08:32.852Z,5.00
2024-02-13T02:11:01.053Z,5.00
2024-02-13T02:13:30.294Z,5.00
2024-02-13T02:15:59.345Z,5.10
2024-02-13T02:18:28.809Z,5.00
2024-02-13T02:20:58.405Z,5.00
2024-02-13T02:23:27.825Z,5.10
2024-02-13T02:25:57.351Z,5.10
2024-02-13T02:28:26.026Z,5.10
2024-02-13T02:30:54.055Z,5.10
2024-02-13T02:33:22.921Z,5.10
2024-02-13T02:35:51.259Z,5.10
2024-02-13T02:38:19.349Z,5.10
2024-02-13T02:40:47.340Z,5.10
2024-02-13T02:43:16.857Z,5.10
2024-02-13T02:45:46.321Z,5.10
2024-02-13T02:48:16.172Z,5.10
2024-02-13T02:50:44.405Z,5.10
2024-02-13T02:53:12.616Z,5.10
2024-02-13T02:55:40.689Z,5.10
2024-02-13T02:58:09.622Z,5.10
2024-02-13T03:00:39.066Z,5.10
2024-02-13T03:03:07.809Z,5.10
2024-02-13T03:05:36.008Z,5.10
2024-02-13T03:08:04.127Z,5.20
2024-02-13T03:10:32.171Z,5.10
2024-02-13T03:13:00.163Z,5.10
2024-02-13T03:15:28.400Z,5.10
2024-02-13T03:17:58.961Z,5.10
2024-02-13T03:20:27.149Z,5.10
2024-02-13T03:22:55.210Z,5.20
2024-02-13T03:25:23.187Z,5.20
2024-02-13T03:27:51.253Z,5.20
2024-02-13T03:30:19.261Z,5.10
2024-02-13T03:32:47.694Z,5.10
2024-02-13T03:35:17.625Z,5.10
2024-02-13T03:37:45.611Z,5.10
2024-02-13T03:40:17.293Z,5.10
2024-02-13T03:42:45.701Z,5.10
2024-02-13T03:45:14.477Z,5.10
2024-02-13T03:47:42.598Z,5.10
2024-02-13T03:50:12.444Z,5.10
2024-02-13T03:52:41.830Z,5.10
2024-02-13T03:55:10.607Z,5.00
2024-02-13T03:57:38.587Z,5.00
2024-02-13T04:00:08.432Z,5.00
2024-02-13T04:02:36.730Z,5.00
2024-02-13T04:05:06.146Z,5.00
2024-02-13T04:07:34.887Z,5.00
2024-02-13T04:10:04.582Z,5.00
2024-02-13T04:12:32.587Z,5.00
2024-02-13T04:15:00.725Z,5.00
2024-02-13T04:17:28.819Z,5.00
2024-02-13T04:19:56.854Z,5.00
2024-02-13T04:22:24.818Z,5.00
2024-02-13T04:24:52.858Z,5.10
2024-02-13T04:27:22.301Z,5.00
2024-02-13T04:29:50.707Z,5.00
2024-02-13T04:32:18.996Z,5.00
2024-02-13T04:34:47.442Z,5.00
2024-02-13T04:37:15.967Z,5.00
2024-02-13T04:39:43.965Z,5.00
2024-02-13T04:42:12.158Z,5.00
2024-02-13T04:44:41.497Z,5.00
2024-02-13T04:47:09.502Z,4.90
2024-02-13T04:49:37.662Z,5.00
2024-02-13T04:52:13.771Z,5.00
2024-02-13T04:54:41.741Z,5.00
2024-02-13T04:57:09.663Z,4.90
2024-02-13T04:59:49.502Z,4.90
2024-02-13T05:02:20.348Z,4.80
2024-02-13T05:05:06.916Z,4.80
2024-02-13T05:07:35.755Z,4.70
2024-02-13T05:10:04.771Z,4.70
2024-02-13T05:12:33.072Z,4.60
2024-02-13T05:15:01.043Z,4.60
2024-02-13T05:17:31.565Z,4.50
2024-02-13T05:20:00.874Z,4.50
2024-02-13T05:22:28.842Z,4.40
2024-02-13T05:24:57.059Z,4.30
2024-02-13T05:27:26.490Z,4.30
2024-02-13T05:29:54.669Z,4.30
2024-02-13T05:32:22.724Z,4.20
2024-02-13T05:34:52.061Z,4.20
2024-02-13T05:37:21.957Z,4.20
2024-02-13T05:39:51.304Z,4.20
2024-02-13T05:42:20.198Z,4.10
2024-02-13T05:44:48.385Z,4.10
2024-02-13T05:47:16.492Z,4.00
2024-02-13T05:49:47.131Z,3.90
2024-02-13T05:52:22.374Z,3.90
2024-02-13T05:54:50.411Z,3.80
2024-02-13T05:57:19.920Z,3.80
2024-02-13T05:59:48.597Z,3.70
2024-02-13T06:02:16.744Z,3.70
2024-02-13T06:04:45.177Z,3.70
2024-02-13T06:07:13.164Z,3.70
2024-02-13T06:09:42.515Z,3.70
2024-02-13T06:12:11.864Z,3.70
2024-02-13T06:14:40.838Z,3.80
2024-02-13T06:17:09.676Z,3.80
2024-02-13T06:19:37.744Z,3.80
2024-02-13T06:22:05.988Z,3.80
2024-02-13T06:24:33.949Z,3.80
2024-02-13T06:27:03.978Z,3.80
2024-02-13T06:29:32.089Z,3.90
2024-02-13T06:32:00.097Z,4.00
2024-02-13T06:34:28.230Z,4.00
2024-02-13T06:36:56.280Z,4.10
2024-02-13T06:39:26.761Z,4.10
2024-02-13T06:41:54.937Z,4.20
2024-02-13T06:44:24.782Z,4.30
2024-02-13T06:46:52.856Z,4.40
2024-02-13T06:49:21.448Z,4.60
2024-02-13T06:51:49.589Z,4.70
2024-02-13T06:54:19.734Z,4.80
2024-02-13T06:56:47.853Z,4.90
2024-02-13T06:59:15.890Z,5.00
2024-02-13T07:01:45.254Z,5.10
2024-02-13T07:04:14.641Z,5.20
2024-02-13T07:06:55.049Z,5.20
2024-02-13T07:09:30.979Z,5.20
2024-02-13T07:11:59.094Z,5.30
2024-02-13T07:14:29.458Z,5.30
2024-02-13T07:16:59.275Z,5.40
2024-02-13T07:19:27.508Z,5.40
2024-02-13T07:21:55.713Z,5.40
2024-02-13T07:24:23.790Z,5.50
2024-02-13T07:26:51.877Z,5.70
2024-02-13T07:29:20.326Z,6.00
2024-02-13T07:31:48.355Z,6.20
2024-02-13T07:34:19.563Z,6.40
2024-02-13T07:36:48.174Z,6.60
2024-02-13T07:39:16.482Z,6.80
2024-02-13T07:41:45.652Z,7.00
2024-02-13T07:44:13.826Z,6.90
2024-02-13T07:46:41.839Z,6.90
2024-02-13T07:49:10.982Z,6.80
2024-02-13T07:51:40.332Z,6.70
2024-02-13T07:54:08.603Z,6.70
2024-02-13T07:56:38.495Z,6.70
2024-02-13T07:59:06.551Z,6.80
2024-02-13T08:01:34.917Z,7.00
2024-02-13T08:04:03.099Z,7.30
2024-02-13T08:06:31.219Z,7.60
2024-02-13T08:09:01.414Z,7.90
2024-02-13T08:11:29.442Z,7.90
2024-02-13T08:13:57.611Z,7.70
2024-02-13T08:16:25.640Z,7.80
2024-02-13T08:18:53.667Z,8.40
2024-02-13T08:21:22.471Z,9.00
2024-02-13T08:23:50.700Z,9.40
2024-02-13T08:26:20.052Z,9.70
2024-02-13T08:28:49.178Z,10.20
2024-02-13T08:31:17.341Z,10.70
2024-02-13T08:33:45.623Z,10.80
2024-02-13T08:36:14.046Z,10.80
2024-02-13T08:38:43.079Z,11.70
2024-02-13T08:41:13.836Z,12.60
2024-02-13T08:43:43.982Z,13.30
2024-02-13T08:46:14.422Z,13.90
2024-02-13T08:48:42.752Z,13.80
2024-02-13T08:51:11.143Z,14.20
2024-02-13T08:53:39.257Z,14.70
2024-02-13T08:56:07.619Z,14.80
2024-02-13T08:58:36.170Z,15.10
2024-02-13T09:01:06.107Z,15.80
2024-02-13T09:03:35.125Z,15.90
2024-02-13T09:06:06.085Z,16.10
2024-02-13T09:08:34.669Z,16.30
2024-02-13T09:11:02.777Z,16.10
2024-02-13T09:13:31.274Z,16.00
2024-02-13T09:15:59.348Z,16.90
2024-02-13T09:18:28.836Z,16.40
2024-02-13T09:20:59.792Z,16.40
2024-02-13T09:23:29.183Z,16.70
2024-02-13T09:25:57.203Z,16.60
2024-02-13T09:28:25.506Z,15.40
2024-02-13T09:30:53.497Z,16.10
2024-02-13T09:33:22.638Z,16.50
2024-02-13T09:35:52.499Z,17.50
2024-02-13T09:38:20.822Z,17.40
2024-02-13T09:40:49.664Z,17.40
2024-02-13T09:43:19.043Z,17.30
2024-02-13T09:45:47.400Z,16.70
2024-02-13T09:48:22.865Z,16.90
2024-02-13T09:50:54.173Z,17.40
2024-02-13T09:53:27.402Z,17.60
2024-02-13T09:55:56.308Z,16.70
2024-02-13T09:58:24.542Z,15.80
2024-02-13T10:00:53.764Z,14.60
2024-02-13T10:03:22.357Z,14.40
2024-02-13T10:05:52.201Z,15.60
2024-02-13T10:08:25.723Z,16.70
2024-02-13T10:11:01.593Z,17.00
2024-02-13T10:13:33.680Z,16.80
2024-02-13T10:16:01.889Z,15.70
2024-02-13T10:18:30.328Z,14.70
2024-02-13T10:21:01.674Z,15.40
2024-02-13T10:23:31.096Z,16.40
2024-02-13T10:25:59.148Z,17.60
2024-02-13T10:28:27.169Z,18.50
2024-02-13T10:30:55.126Z,17.90
2024-02-13T10:33:23.323Z,16.20
2024-02-13T10:35:56.216Z,15.10
2024-02-13T10:38:30.353Z,15.00
2024-02-13T10:40:59.495Z,14.60
2024-02-13T10:43:30.743Z,13.80
2024-02-13T10:46:00.750Z,13.00
2024-02-13T10:48:43.624Z,12.40
2024-02-13T10:51:12.074Z,11.80
2024-02-13T10:53:41.426Z,11.50
2024-02-13T10:56:11.247Z,12.50
2024-02-13T10:58:41.014Z,13.80
2024-02-13T11:01:10.697Z,13.60
2024-02-13T11:03:39.643Z,13.50
2024-02-13T11:06:08.129Z,13.00
2024-02-13T11:08:37.825Z,12.10
2024-02-13T11:11:17.815Z,11.70
2024-02-13T11:13:45.846Z,11.30
2024-02-13T11:16:15.118Z,11.20
2024-02-13T11:18:49.600Z,11.00
2024-02-13T11:21:22.525Z,10.90
2024-02-13T11:23:55.196Z,10.90
2024-02-13T11:26:26.424Z,11.00
2024-02-13T11:28:55.185Z,12.20
2024-02-13T11:31:27.429Z,12.30
2024-02-13T11:34:09.984Z,11.80
2024-02-13T11:36:39.110Z,11.30
2024-02-13T11:39:08.538Z,10.90
2024-02-13T11:41:39.491Z,10.50
2024-02-13T11:44:10.035Z,10.30
2024-02-13T11:46:40.722Z,10.10
2024-02-13T11:49:11.012Z,10.10
2024-02-13T11:51:40.388Z,10.10
2024-02-13T11:54:10.336Z,10.10
2024-02-13T11:56:40.478Z,10.30
2024-02-13T11:59:08.982Z,10.40
2024-02-13T12:01:38.671Z,10.50
2024-02-13T12:04:13.356Z,10.60
2024-02-13T12:06:44.725Z,10.80
2024-02-13T12:09:14.717Z,11.10
2024-02-13T12:11:45.380Z,11.40
2024-02-13T12:14:14.374Z,11.40
2024-02-13T12:16:43.744Z,11.20
2024-02-13T12:19:12.029Z,11.10
2024-02-13T12:21:40.091Z,11.00
2024-02-13T12:24:10.704Z,11.00
2024-02-13T12:26:38.814Z,11.00
2024-02-13T12:29:16.277Z,10.80
2024-02-13T12:31:45.270Z,10.70
2024-02-13T12:34:17.720Z,11.00
2024-02-13T12:36:46.236Z,11.50
2024-02-13T12:39:17.889Z,11.60
2024-02-13T12:41:46.958Z,11.50
2024-02-13T12:44:16.617Z,11.30
2024-02-13T12:46:46.966Z,11.00
2024-02-13T12:49:17.812Z,10.60
2024-02-13T12:51:46.149Z,10.50
2024-02-13T12:54:15.488Z,10.40
2024-02-13T12:56:43.591Z,10.70
2024-02-13T12:59:13.663Z,11.10
2024-02-13T13:01:45.927Z,11.10
2024-02-13T13:04:15.200Z,11.20
2024-02-13T13:06:45.490Z,11.40
2024-02-13T13:09:23.477Z,11.50
2024-02-13T13:11:56.308Z,11.70
2024-02-13T13:14:25.432Z,12.00
2024-02-13T13:16:56.560Z,12.30
2024-02-13T13:19:28.405Z,12.70
2024-02-13T13:21:57.430Z,12.60
2024-02-13T13:24:25.746Z,12.60
2024-02-13T13:26:54.948Z,12.90
2024-02-13T13:29:23.444Z,13.00
2024-02-13T13:31:52.288Z,12.80
2024-02-13T13:34:25.258Z,13.00
2024-02-13T13:36:56.218Z,13.30
2024-02-13T13:39:30.055Z,13.50
2024-02-13T13:42:09.773Z,13.10
2024-02-13T13:44:38.568Z,12.40
2024-02-13T13:47:08.632Z,12.10
2024-02-13T13:49:39.157Z,11.90
2024-02-13T13:52:08.146Z,11.90
2024-02-13T13:54:36.214Z,11.90
2024-02-13T13:57:04.246Z,11.80
2024-02-13T13:59:32.982Z,11.70
2024-02-13T14:02:01.940Z,11.70
2024-02-13T14:04:30.261Z,11.70
2024-02-13T14:07:00.700Z,11.80
2024-02-13T14:09:28.794Z,11.70
2024-02-13T14:11:57.604Z,11.50
2024-02-13T14:14:26.041Z,11.10
2024-02-13T14:16:55.631Z,11.00
2024-02-13T14:19:24.246Z,11.10
2024-02-13T14:21:52.274Z,10.90
2024-02-13T14:24:22.039Z,10.70
2024-02-13T14:26:50.503Z,10.60
2024-02-13T14:29:19.304Z,10.40
2024-02-13T14:31:48.687Z,10.50
2024-02-13T14:34:17.195Z,10.50
2024-02-13T14:36:47.681Z,10.40
2024-02-13T14:39:19.227Z,10.30
2024-02-13T14:41:55.016Z,10.20
2024-02-13T14:44:23.722Z,10.40
2024-02-13T14:46:52.330Z,10.60
2024-02-13T14:49:21.361Z,10.70
2024-02-13T14:51:49.699Z,10.80
2024-02-13T14:54:17.714Z,10.80
2024-02-13T14:56:45.705Z,10.70
2024-02-13T14:59:16.621Z,10.70
2024-02-13T15:01:46.214Z,10.80
2024-02-13T15:04:14.442Z,10.90
2024-02-13T15:06:42.616Z,10.90
2024-02-13T15:09:11.841Z,10.80
2024-02-13T15:11:40.439Z,10.60
2024-02-13T15:14:08.969Z,10.70
2024-02-13T15:16:38.380Z,10.60
2024-02-13T15:19:07.607Z,10.60
2024-02-13T15:21:35.871Z,10.50
2024-02-13T15:24:05.097Z,10.50
2024-02-13T15:26:34.447Z,10.40
2024-02-13T15:29:02.628Z,10.40
2024-02-13T15:31:30.966Z,10.30
2024-02-13T15:34:00.563Z,10.10
2024-02-13T15:36:34.521Z,10.10
2024-02-13T15:39:20.672Z,10.10
2024-02-13T15:42:07.130Z,10.00
2024-02-13T15:44:53.121Z,10.10
2024-02-13T15:47:22.245Z,10.10
2024-02-13T15:49:52.219Z,10.10
2024-02-13T15:52:22.601Z,10.10
2024-02-13T15:54:51.678Z,10.10
2024-02-13T15:57:20.044Z,9.90
2024-02-13T15:59:48.117Z,9.80
2024-02-13T16:02:19.076Z,9.60
2024-02-13T16:04:48.104Z,9.50
2024-02-13T16:07:20.657Z,9.40
2024-02-13T16:09:49.068Z,9.30
2024-02-13T16:12:17.015Z,9.20
2024-02-13T16:14:45.121Z,9.10
2024-02-13T16:17:13.338Z,8.90
2024-02-13T16:19:41.425Z,8.70
2024-02-13T16:22:09.473Z,8.60
2024-02-13T16:24:38.796Z,8.50
2024-02-13T16:27:06.815Z,8.40
2024-02-13T16:29:35.029Z,8.40
2024-02-13T16:32:03.669Z,8.30
2024-02-13T16:34:31.981Z,8.20
2024-02-13T16:37:00.091Z,7.90
2024-02-13T16:39:28.088Z,7.80
2024-02-13T16:41:57.598Z,7.70
2024-02-13T16:44:25.982Z,7.60
2024-02-13T16:46:57.056Z,7.40
2024-02-13T16:49:25.990Z,7.30
2024-02-13T16:51:54.357Z,7.20
2024-02-13T16:54:22.379Z,7.10
2024-02-13T16:56:50.360Z,7.00
2024-02-13T16:59:20.053Z,6.80
2024-02-13T17:01:48.054Z,6.60
2024-02-13T17:04:16.094Z,6.40
2024-02-13T17:06:44.917Z,6.40
2024-02-13T17:09:13.088Z,6.30
2024-02-13T17:11:41.163Z,6.20
2024-02-13T17:14:09.593Z,6.10
2024-02-13T17:16:39.139Z,6.00
2024-02-13T17:19:11.412Z,5.70
2024-02-13T17:21:39.445Z,5.70
2024-02-13T17:24:07.743Z,5.60
2024-02-13T17:26:36.800Z,5.60
2024-02-13T17:29:04.992Z,5.60
2024-02-13T17:31:33.023Z,5.50
2024-02-13T17:34:02.458Z,5.40
2024-02-13T17:36:30.500Z,5.20
2024-02-13T17:38:58.537Z,5.20
2024-02-13T17:41:28.723Z,5.10
2024-02-13T17:44:00.359Z,5.00
2024-02-13T17:46:28.911Z,4.90
2024-02-13T17:48:57.045Z,4.80
2024-02-13T17:51:26.565Z,4.80
2024-02-13T17:53:56.004Z,4.70
2024-02-13T17:56:25.006Z,4.50
2024-02-13T17:58:53.071Z,4.50
2024-02-13T18:01:21.086Z,4.60
2024-02-13T18:03:49.357Z,4.50
2024-02-13T18:06:17.378Z,4.60
2024-02-13T18:08:46.830Z,4.50
2024-02-13T18:11:15.371Z,4.40
2024-02-13T18:13:43.467Z,4.40
2024-02-13T18:16:11.796Z,4.40
2024-02-13T18:18:39.969Z,4.40
2024-02-13T18:21:08.315Z,4.40
2024-02-13T18:23:36.512Z,4.40
2024-02-13T18:26:06.219Z,4.30
2024-02-13T18:28:35.359Z,4.40
2024-02-13T18:31:04.614Z,4.20
2024-02-13T18:33:32.730Z,4.20
2024-02-13T18:36:00.941Z,4.20
2024-02-13T18:38:29.113Z,4.20
2024-02-13T18:40:57.645Z,4.00
2024-02-13T18:43:29.357Z,3.90
2024-02-13T18:45:57.663Z,3.80
2024-02-13T18:48:26.947Z,3.80
2024-02-13T18:50:55.143Z,3.70
2024-02-13T18:53:24.378Z,3.80
2024-02-13T18:55:52.403Z,3.80
2024-02-13T18:58:20.422Z,3.80
2024-02-13T19:00:51.048Z,3.80
2024-02-13T19:03:21.323Z,3.70
2024-02-13T19:05:50.241Z,3.60
2024-02-13T19:08:19.828Z,3.50
2024-02-13T19:10:49.704Z,3.60
2024-02-13T19:13:17.734Z,3.60
2024-02-13T19:15:46.456Z,3.60
2024-02-13T19:18:17.318Z,3.60
2024-02-13T19:20:45.665Z,3.40
2024-02-13T19:23:13.716Z,3.40
2024-02-13T19:25:42.592Z,3.40
2024-02-13T19:28:10.589Z,3.40
2024-02-13T19:30:38.682Z,3.30
2024-02-13T19:33:07.923Z,3.20
2024-02-13T19:35:37.809Z,3.20
2024-02-13T19:38:06.115Z,3.20
2024-02-13T19:40:34.109Z,3.20
2024-02-13T19:43:02.078Z,3.20
2024-02-13T19:45:30.026Z,3.20
2024-02-13T19:47:58.105Z,3.10
2024-02-13T19:50:26.489Z,3.00
2024-02-13T19:52:56.208Z,3.00
2024-02-13T19:55:25.102Z,3.00
2024-02-13T19:57:54.572Z,2.90
2024-02-13T20:00:23.428Z,2.80
2024-02-13T20:02:51.537Z,2.90
2024-02-13T20:05:21.421Z,2.90
2024-02-13T20:07:49.452Z,2.70
2024-02-13T20:10:22.193Z,2.70
2024-02-13T20:12:50.263Z,2.60
2024-02-13T20:15:18.341Z,2.70
2024-02-13T20:17:46.825Z,2.60
2024-02-13T20:20:16.428Z,2.60
2024-02-13T20:22:47.668Z,2.60
2024-02-13T20:25:16.198Z,2.50
2024-02-13T20:27:46.302Z,2.50
2024-02-13T20:30:15.400Z,2.40
2024-02-13T20:32:45.448Z,2.30
2024-02-13T20:35:13.766Z,2.30
2024-02-13T20:37:43.276Z,2.20
2024-02-13T20:40:12.947Z,2.10
2024-02-13T20:42:43.392Z,2.10
2024-02-13T20:45:20.761Z,2.10
2024-02-13T20:47:51.209Z,2.10
2024-02-13T20:50:19.846Z,2.00
2024-02-13T20:52:47.856Z,1.90
2024-02-13T20:55:18.434Z,1.90
2024-02-13T20:57:49.107Z,1.90
2024-02-13T21:00:19.457Z,1.90
2024-02-13T21:02:49.155Z,1.90
2024-02-13T21:05:17.540Z,1.90
2024-02-13T21:07:45.525Z,1.90
2024-02-13T21:10:13.576Z,1.90
2024-02-13T21:12:41.595Z,1.90
2024-02-13T21:15:13.200Z,1.80
2024-02-13T21:17:43.645Z,1.90
2024-02-13T21:20:13.448Z,1.90
2024-02-13T21:22:59.361Z,1.90
2024-02-13T21:25:27.580Z,1.90
2024-02-13T21:27:55.945Z,1.80
2024-02-13T21:30:24.017Z,1.80
2024-02-13T21:32:53.481Z,1.80
2024-02-13T21:35:22.540Z,1.80
2024-02-13T21:37:50.678Z,1.90
2024-02-13T21:40:18.861Z,1.90
2024-02-13T21:42:47.831Z,1.90
2024-02-13T21:45:15.982Z,1.90
2024-02-13T21:47:46.057Z,2.00
2024-02-13T21:50:15.569Z,2.00
2024-02-13T21:52:43.837Z,2.00
2024-02-13T21:55:11.937Z,1.90
2024-02-13T21:57:43.265Z,1.90
2024-02-13T22:00:12.853Z,1.80
2024-02-13T22:02:41.024Z,1.80
2024-02-13T22:05:09.330Z,1.80
2024-02-13T22:07:39.221Z,1.70
2024-02-13T22:10:09.059Z,1.70
2024-02-13T22:12:37.074Z,1.70
2024-02-13T22:15:05.861Z,1.70
2024-02-13T22:17:34.365Z,1.70
2024-02-13T22:20:02.705Z,1.70
2024-02-13T22:22:30.761Z,1.70
2024-02-13T22:25:01.106Z,1.70
2024-02-13T22:27:29.862Z,1.60
2024-02-13T22:29:58.371Z,1.60
2024-02-13T22:32:26.780Z,1.60
2024-02-13T22:34:58.138Z,1.50
2024-02-13T22:37:26.831Z,1.50
2024-02-13T22:39:54.785Z,1.50
2024-02-13T22:42:24.154Z,1.60
2024-02-13T22:44:52.207Z,1.60
2024-02-13T22:47:20.399Z,1.60
2024-02-13T22:49:48.617Z,1.60
2024-02-13T22:52:16.856Z,1.60
2024-02-13T22:54:45.011Z,1.60
2024-02-13T22:57:14.107Z,1.60
2024-02-13T22:59:43.575Z,1.60
2024-02-13T23:02:12.390Z,1.60
2024-02-13T23:04:41.166Z,1.60
2024-02-13T23:07:09.175Z,1.60
2024-02-13T23:09:37.478Z,1.60
2024-02-13T23:12:06.267Z,1.60
2024-02-13T23:14:37.992Z,1.60
2024-02-13T23:17:08.727Z,1.50
2024-02-13T23:19:37.265Z,1.50
2024-02-13T23:22:06.031Z,1.50
2024-02-13T23:24:34.366Z,1.50
2024-02-13T23:27:03.808Z,1.50
2024-02-13T23:29:31.947Z,1.50
2024-02-13T23:32:00.078Z,1.40
2024-02-13T23:34:29.467Z,1.40
2024-02-13T23:36:57.459Z,1.40
2024-02-13T23:39:25.499Z,1.40
2024-02-13T23:41:53.486Z,1.40
2024-02-13T23:44:21.969Z,1.30
2024-02-13T23:46:50.087Z,1.30
2024-02-13T23:49:18.278Z,1.30
2024-02-13T23:51:47.768Z,1.30
2024-02-13T23:54:17.967Z,1.30
2024-02-13T23:56:46.118Z,1.40
2024-02-13T23:59:14.114Z,1.30
